Terminal Aerodrome Forecast
Issued by NWS Caribou, ME

Home | Current Version | Previous Version | Text Only | Print | Product List | Glossary On
Versions: 1 2 3 4 5 6 7 8 9 10 11 12 13 14 15 16 17 18 19 20 21 22 23
000
FTUS41 KCAR 300145 AAC
TAFBGR
TAF AMD
KBGR 300145Z 3002/3024 16007KT P6SM -DZ OVC025
     FM300430 15005KT 6SM -DZ OVC015
     FM300600 15004KT 3SM -DZ BR OVC008
     FM300800 18004KT 1SM -SHRADZ BR OVC005
     FM301300 20005KT P6SM OVC008
     FM301500 20008KT P6SM OVC015
     FM301700 20008KT P6SM BKN025
     FM302000 20009KT P6SM BKN040=

USA.gov is the U.S. government's official web portal to all federal, state and local government web resources and services.